sensor_id;sensor_type;location;lat;lon;timestamp;P1;durP1;ratioP1;P2;durP2;ratioP2
35897;SDS011;21997;47.118;15.346;2023-01-29T00:01:34;17.50;;;11.10;;
35897;SDS011;21997;47.118;15.346;2023-01-29T00:03:59;17.17;;;11.53;;
35897;SDS011;21997;47.118;15.346;2023-01-29T00:06:24;17.13;;;11.47;;
35897;SDS011;21997;47.118;15.346;2023-01-29T00:08:50;16.90;;;11.13;;
35897;SDS011;21997;47.118;15.346;2023-01-29T00:11:15;17.23;;;11.47;;
35897;SDS011;21997;47.118;15.346;2023-01-29T00:13:41;21.33;;;12.37;;
35897;SDS011;21997;47.118;15.346;2023-01-29T00:16:07;20.63;;;12.93;;
35897;SDS011;21997;47.118;15.346;2023-01-29T00:18:36;21.43;;;12.83;;
35897;SDS011;21997;47.118;15.346;2023-01-29T00:21:02;23.67;;;12.73;;
35897;SDS011;21997;47.118;15.346;2023-01-29T00:23:28;25.30;;;14.20;;
35897;SDS011;21997;47.118;15.346;2023-01-29T00:25:53;24.87;;;12.87;;
35897;SDS011;21997;47.118;15.346;2023-01-29T00:28:18;22.00;;;13.63;;
35897;SDS011;21997;47.118;15.346;2023-01-29T00:30:44;18.23;;;11.87;;
35897;SDS011;21997;47.118;15.346;2023-01-29T00:33:09;24.53;;;13.40;;
35897;SDS011;21997;47.118;15.346;2023-01-29T00:35:38;22.23;;;13.67;;
35897;SDS011;21997;47.118;15.346;2023-01-29T00:38:03;20.23;;;13.13;;
35897;SDS011;21997;47.118;15.346;2023-01-29T00:40:29;19.27;;;11.97;;
35897;SDS011;21997;47.118;15.346;2023-01-29T00:43:14;22.33;;;13.03;;
35897;SDS011;21997;47.118;15.346;2023-01-29T00:46:12;18.87;;;11.93;;
35897;SDS011;21997;47.118;15.346;2023-01-29T00:48:37;22.47;;;13.70;;
35897;SDS011;21997;47.118;15.346;2023-01-29T00:51:02;19.50;;;13.03;;
35897;SDS011;21997;47.118;15.346;2023-01-29T00:53:28;21.97;;;13.83;;
35897;SDS011;21997;47.118;15.346;2023-01-29T00:55:54;16.60;;;11.97;;
35897;SDS011;21997;47.118;15.346;2023-01-29T00:58:19;22.80;;;13.77;;
35897;SDS011;21997;47.118;15.346;2023-01-29T01:00:46;22.50;;;13.47;;
35897;SDS011;21997;47.118;15.346;2023-01-29T01:03:12;19.40;;;12.63;;
35897;SDS011;21997;47.118;15.346;2023-01-29T01:05:37;22.10;;;13.50;;
35897;SDS011;21997;47.118;15.346;2023-01-29T01:08:03;21.30;;;12.23;;
35897;SDS011;21997;47.118;15.346;2023-01-29T01:10:56;19.53;;;13.20;;
35897;SDS011;21997;47.118;15.346;2023-01-29T01:13:26;23.97;;;15.87;;
35897;SDS011;21997;47.118;15.346;2023-01-29T01:15:51;26.37;;;15.20;;
35897;SDS011;21997;47.118;15.346;2023-01-29T01:18:17;23.00;;;13.90;;
35897;SDS011;21997;47.118;15.346;2023-01-29T01:20:44;21.50;;;14.00;;
35897;SDS011;21997;47.118;15.346;2023-01-29T01:23:09;21.37;;;13.53;;
35897;SDS011;21997;47.118;15.346;2023-01-29T01:25:35;21.70;;;13.43;;
35897;SDS011;21997;47.118;15.346;2023-01-29T01:28:00;22.07;;;13.73;;
35897;SDS011;21997;47.118;15.346;2023-01-29T01:30:26;21.30;;;13.40;;
35897;SDS011;21997;47.118;15.346;2023-01-29T01:32:51;22.37;;;13.70;;
35897;SDS011;21997;47.118;15.346;2023-01-29T01:35:17;19.70;;;12.50;;
35897;SDS011;21997;47.118;15.346;2023-01-29T01:37:42;20.00;;;12.57;;
35897;SDS011;21997;47.118;15.346;2023-01-29T01:40:11;22.27;;;13.60;;
35897;SDS011;21997;47.118;15.346;2023-01-29T01:42:41;21.37;;;13.17;;
35897;SDS011;21997;47.118;15.346;2023-01-29T01:45:13;23.20;;;13.63;;
35897;SDS011;21997;47.118;15.346;2023-01-29T01:47:47;20.80;;;13.23;;
35897;SDS011;21997;47.118;15.346;2023-01-29T01:52:42;20.47;;;12.23;;
35897;SDS011;21997;47.118;15.346;2023-01-29T01:55:11;23.90;;;13.17;;
35897;SDS011;21997;47.118;15.346;2023-01-29T01:57:38;20.90;;;12.37;;
35897;SDS011;21997;47.118;15.346;2023-01-29T02:00:05;21.47;;;14.00;;
35897;SDS011;21997;47.118;15.346;2023-01-29T02:02:36;20.40;;;12.00;;
35897;SDS011;21997;47.118;15.346;2023-01-29T02:05:22;19.07;;;12.77;;
35897;SDS011;21997;47.118;15.346;2023-01-29T02:08:05;21.47;;;13.23;;
35897;SDS011;21997;47.118;15.346;2023-01-29T02:10:49;20.17;;;12.33;;
35897;SDS011;21997;47.118;15.346;2023-01-29T02:13:15;21.07;;;13.10;;
35897;SDS011;21997;47.118;15.346;2023-01-29T02:15:42;19.23;;;12.03;;
35897;SDS011;21997;47.118;15.346;2023-01-29T02:18:16;20.27;;;12.77;;
35897;SDS011;21997;47.118;15.346;2023-01-29T02:29:20;20.97;;;13.20;;
35897;SDS011;21997;47.118;15.346;2023-01-29T02:34:35;18.73;;;12.03;;
35897;SDS011;21997;47.118;15.346;2023-01-29T02:37:31;20.70;;;13.87;;
35897;SDS011;21997;47.118;15.346;2023-01-29T02:40:05;17.87;;;11.30;;
35897;SDS011;21997;47.118;15.346;2023-01-29T02:42:52;19.00;;;12.53;;
35897;SDS011;21997;47.118;15.346;2023-01-29T02:45:57;22.90;;;12.60;;
35897;SDS011;21997;47.118;15.346;2023-01-29T02:48:25;19.63;;;12.87;;
35897;SDS011;21997;47.118;15.346;2023-01-29T02:54:07;18.47;;;;;
35897;SDS011;21997;47.118;15.346;2023-01-29T02:56:47;17.63;;;12.13;;
35897;SDS011;21997;47.118;15.346;2023-01-29T02:59:31;20.27;;;12.20;;
35897;SDS011;21997;47.118;15.346;2023-01-29T03:02:02;21.83;;;12.70;;
35897;SDS011;21997;47.118;15.346;2023-01-29T03:04:32;21.80;;;13.17;;
35897;SDS011;21997;47.118;15.346;2023-01-29T03:07:00;22.03;;;13.70;;
35897;SDS011;21997;47.118;15.346;2023-01-29T03:09:40;24.13;;;13.80;;
35897;SDS011;21997;47.118;15.346;2023-01-29T03:12:17;20.73;;;12.43;;
35897;SDS011;21997;47.118;15.346;2023-01-29T03:14:59;21.13;;;13.37;;
35897;SDS011;21997;47.118;15.346;2023-01-29T03:17:40;22.67;;;13.50;;
35897;SDS011;21997;47.118;15.346;2023-01-29T03:20:10;20.40;;;12.83;;
35897;SDS011;21997;47.118;15.346;2023-01-29T03:22:40;19.20;;;12.70;;
35897;SDS011;21997;47.118;15.346;2023-01-29T03:25:08;20.70;;;12.83;;
35897;SDS011;21997;47.118;15.346;2023-01-29T03:27:56;21.80;;;13.43;;
35897;SDS011;21997;47.118;15.346;2023-01-29T03:30:54;22.40;;;13.23;;
35897;SDS011;21997;47.118;15.346;2023-01-29T03:33:48;19.87;;;12.20;;
35897;SDS011;21997;47.118;15.346;2023-01-29T03:36:17;23.33;;;14.33;;
35897;SDS011;21997;47.118;15.346;2023-01-29T03:38:47;23.53;;;13.07;;
35897;SDS011;21997;47.118;15.346;2023-01-29T03:57:30;21.10;;;13.00;;
35897;SDS011;21997;47.118;15.346;2023-01-29T04:00:50;22.67;;;13.10;;
35897;SDS011;21997;47.118;15.346;2023-01-29T04:05:38;21.57;;;13.63;;
35897;SDS011;21997;47.118;15.346;2023-01-29T04:08:09;20.60;;;13.00;;
35897;SDS011;21997;47.118;15.346;2023-01-29T04:10:37;19.90;;;12.70;;
35897;SDS011;21997;47.118;15.346;2023-01-29T04:13:04;19.33;;;12.87;;
35897;SDS011;21997;47.118;15.346;2023-01-29T04:15:33;21.53;;;12.93;;
35897;SDS011;21997;47.118;15.346;2023-01-29T04:18:00;22.27;;;13.20;;
35897;SDS011;21997;47.118;15.346;2023-01-29T04:20:26;22.40;;;13.70;;
35897;SDS011;21997;47.118;15.346;2023-01-29T04:22:52;18.13;;;12.03;;
35897;SDS011;21997;47.118;15.346;2023-01-29T04:25:20;25.47;;;14.47;;
35897;SDS011;21997;47.118;15.346;2023-01-29T04:36:24;21.87;;;12.27;;
35897;SDS011;21997;47.118;15.346;2023-01-29T04:49:44;23.83;;;14.50;;
35897;SDS011;21997;47.118;15.346;2023-01-29T05:00:05;18.23;;;12.37;;
35897;SDS011;21997;47.118;15.346;2023-01-29T05:02:35;19.67;;;11.97;;
35897;SDS011;21997;47.118;15.346;2023-01-29T05:05:03;20.10;;;12.33;;
35897;SDS011;21997;47.118;15.346;2023-01-29T05:07:30;21.57;;;13.33;;
35897;SDS011;21997;47.118;15.346;2023-01-29T05:09:56;25.07;;;13.67;;
35897;SDS011;21997;47.118;15.346;2023-01-29T05:12:22;27.83;;;15.80;;
35897;SDS011;21997;47.118;15.346;2023-01-29T05:14:49;31.30;;;16.43;;
35897;SDS011;21997;47.118;15.346;2023-01-29T05:17:17;29.30;;;17.17;;
35897;SDS011;21997;47.118;15.346;2023-01-29T05:19:43;29.00;;;16.03;;
35897;SDS011;21997;47.118;15.346;2023-01-29T05:22:10;27.07;;;15.77;;
35897;SDS011;21997;47.118;15.346;2023-01-29T05:24:36;25.43;;;15.00;;
35897;SDS011;21997;47.118;15.346;2023-01-29T05:27:02;31.57;;;17.30;;
35897;SDS011;21997;47.118;15.346;2023-01-29T05:29:46;29.07;;;16.17;;
35897;SDS011;21997;47.118;15.346;2023-01-29T05:32:12;29.03;;;14.63;;
35897;SDS011;21997;47.118;15.346;2023-01-29T05:34:38;24.97;;;14.37;;
35897;SDS011;21997;47.118;15.346;2023-01-29T05:37:03;29.20;;;17.23;;
35897;SDS011;21997;47.118;15.346;2023-01-29T05:39:28;31.87;;;17.80;;
35897;SDS011;21997;47.118;15.346;2023-01-29T05:41:54;31.80;;;18.63;;
35897;SDS011;21997;47.118;15.346;2023-01-29T05:44:19;25.33;;;16.10;;
35897;SDS011;21997;47.118;15.346;2023-01-29T05:46:45;26.07;;;16.47;;
35897;SDS011;21997;47.118;15.346;2023-01-29T05:49:10;31.03;;;16.50;;
35897;SDS011;21997;47.118;15.346;2023-01-29T05:51:36;23.57;;;15.97;;
35897;SDS011;21997;47.118;15.346;2023-01-29T05:54:01;33.67;;;17.07;;
35897;SDS011;21997;47.118;15.346;2023-01-29T05:56:26;26.03;;;14.37;;
35897;SDS011;21997;47.118;15.346;2023-01-29T05:58:52;20.87;;;13.43;;
35897;SDS011;21997;47.118;15.346;2023-01-29T06:01:19;19.67;;;12.60;;
35897;SDS011;21997;47.118;15.346;2023-01-29T06:03:46;23.70;;;13.23;;
35897;SDS011;21997;47.118;15.346;2023-01-29T06:06:11;21.90;;;13.33;;
35897;SDS011;21997;47.118;15.346;2023-01-29T06:08:37;22.10;;;13.53;;
35897;SDS011;21997;47.118;15.346;2023-01-29T06:11:02;23.60;;;12.83;;
35897;SDS011;21997;47.118;15.346;2023-01-29T06:13:28;23.43;;;12.43;;
35897;SDS011;21997;47.118;15.346;2023-01-29T06:15:54;20.70;;;11.87;;
35897;SDS011;21997;47.118;15.346;2023-01-29T06:18:19;17.53;;;10.53;;
35897;SDS011;21997;47.118;15.346;2023-01-29T06:20:45;18.80;;;10.87;;
35897;SDS011;21997;47.118;15.346;2023-01-29T06:23:10;15.40;;;9.83;;
35897;SDS011;21997;47.118;15.346;2023-01-29T06:25:35;16.60;;;10.33;;
35897;SDS011;21997;47.118;15.346;2023-01-29T06:28:01;18.93;;;10.93;;
35897;SDS011;21997;47.118;15.346;2023-01-29T06:30:26;14.40;;;9.60;;
35897;SDS011;21997;47.118;15.346;2023-01-29T06:32:56;16.07;;;10.63;;
35897;SDS011;21997;47.118;15.346;2023-01-29T06:35:25;13.87;;;9.90;;
35897;SDS011;21997;47.118;15.346;2023-01-29T06:37:51;16.03;;;9.97;;
35897;SDS011;21997;47.118;15.346;2023-01-29T06:40:17;13.63;;;10.40;;
35897;SDS011;21997;47.118;15.346;2023-01-29T06:42:42;17.20;;;10.63;;
35897;SDS011;21997;47.118;15.346;2023-01-29T06:45:08;17.87;;;10.23;;
35897;SDS011;21997;47.118;15.346;2023-01-29T06:47:34;17.80;;;9.57;;
35897;SDS011;21997;47.118;15.346;2023-01-29T06:49:59;13.23;;;8.50;;
35897;SDS011;21997;47.118;15.346;2023-01-29T06:52:25;13.90;;;9.93;;
35897;SDS011;21997;47.118;15.346;2023-01-29T06:54:53;13.10;;;8.60;;
35897;SDS011;21997;47.118;15.346;2023-01-29T06:57:21;14.17;;;9.37;;
35897;SDS011;21997;47.118;15.346;2023-01-29T06:59:47;15.57;;;9.60;;
35897;SDS011;21997;47.118;15.346;2023-01-29T07:02:12;14.00;;;9.00;;
35897;SDS011;21997;47.118;15.346;2023-01-29T07:04:38;17.20;;;10.10;;
35897;SDS011;21997;47.118;15.346;2023-01-29T07:07:05;17.87;;;11.17;;
35897;SDS011;21997;47.118;15.346;2023-01-29T07:09:36;15.97;;;10.97;;
35897;SDS011;21997;47.118;15.346;2023-01-29T07:12:02;19.13;;;11.43;;
35897;SDS011;21997;47.118;15.346;2023-01-29T07:14:28;20.87;;;13.03;;
35897;SDS011;21997;47.118;15.346;2023-01-29T07:16:54;21.60;;;14.47;;
35897;SDS011;21997;47.118;15.346;2023-01-29T07:19:19;28.10;;;15.37;;
35897;SDS011;21997;47.118;15.346;2023-01-29T07:21:44;30.90;;;17.47;;
35897;SDS011;21997;47.118;15.346;2023-01-29T07:24:10;28.63;;;17.30;;
35897;SDS011;21997;47.118;15.346;2023-01-29T07:26:35;28.47;;;16.73;;
35897;SDS011;21997;47.118;15.346;2023-01-29T07:29:01;31.20;;;18.10;;
35897;SDS011;21997;47.118;15.346;2023-01-29T07:31:26;45.87;;;20.00;;
35897;SDS011;21997;47.118;15.346;2023-01-29T07:33:52;35.33;;;18.17;;
35897;SDS011;21997;47.118;15.346;2023-01-29T07:36:17;27.17;;;16.60;;
35897;SDS011;21997;47.118;15.346;2023-01-29T07:38:43;26.63;;;15.43;;
35897;SDS011;21997;47.118;15.346;2023-01-29T07:41:08;27.73;;;15.60;;
35897;SDS011;21997;47.118;15.346;2023-01-29T07:43:35;27.23;;;14.23;;
35897;SDS011;21997;47.118;15.346;2023-01-29T07:46:01;22.33;;;13.17;;
35897;SDS011;21997;47.118;15.346;2023-01-29T07:48:28;22.43;;;12.10;;
35897;SDS011;21997;47.118;15.346;2023-01-29T07:50:54;21.47;;;11.93;;
35897;SDS011;21997;47.118;15.346;2023-01-29T07:53:20;17.90;;;11.43;;
35897;SDS011;21997;47.118;15.346;2023-01-29T07:55:45;30.03;;;17.57;;
35897;SDS011;21997;47.118;15.346;2023-01-29T07:58:11;25.40;;;14.27;;
35897;SDS011;21997;47.118;15.346;2023-01-29T08:00:36;21.77;;;12.67;;
35897;SDS011;21997;47.118;15.346;2023-01-29T08:03:20;22.73;;;13.97;;
35897;SDS011;21997;47.118;15.346;2023-01-29T08:05:45;23.00;;;13.80;;
35897;SDS011;21997;47.118;15.346;2023-01-29T08:08:11;28.67;;;15.60;;
35897;SDS011;21997;47.118;15.346;2023-01-29T08:10:37;25.00;;;14.40;;
35897;SDS011;21997;47.118;15.346;2023-01-29T08:13:03;24.13;;;14.77;;
35897;SDS011;21997;47.118;15.346;2023-01-29T08:15:29;26.10;;;16.10;;
35897;SDS011;21997;47.118;15.346;2023-01-29T08:17:55;33.37;;;22.53;;
35897;SDS011;21997;47.118;15.346;2023-01-29T08:20:20;28.43;;;17.97;;
35897;SDS011;21997;47.118;15.346;2023-01-29T08:22:46;31.77;;;16.03;;
35897;SDS011;21997;47.118;15.346;2023-01-29T08:25:12;22.40;;;14.43;;
35897;SDS011;21997;47.118;15.346;2023-01-29T08:27:38;21.10;;;14.17;;
35897;SDS011;21997;47.118;15.346;2023-01-29T08:30:04;26.90;;;15.67;;
35897;SDS011;21997;47.118;15.346;2023-01-29T08:32:30;20.53;;;13.57;;
35897;SDS011;21997;47.118;15.346;2023-01-29T08:34:56;26.30;;;15.33;;
35897;SDS011;21997;47.118;15.346;2023-01-29T08:37:21;26.37;;;15.40;;
35897;SDS011;21997;47.118;15.346;2023-01-29T08:39:46;22.03;;;15.30;;
35897;SDS011;21997;47.118;15.346;2023-01-29T08:42:12;21.07;;;14.10;;
35897;SDS011;21997;47.118;15.346;2023-01-29T08:44:37;27.67;;;16.43;;
35897;SDS011;21997;47.118;15.346;2023-01-29T08:47:03;20.73;;;13.10;;
35897;SDS011;21997;47.118;15.346;2023-01-29T08:49:28;22.33;;;13.87;;
35897;SDS011;21997;47.118;15.346;2023-01-29T08:51:54;22.27;;;13.10;;
35897;SDS011;21997;47.118;15.346;2023-01-29T08:54:21;21.17;;;13.83;;
35897;SDS011;21997;47.118;15.346;2023-01-29T08:56:47;17.87;;;12.40;;
35897;SDS011;21997;47.118;15.346;2023-01-29T08:59:12;17.57;;;12.70;;
35897;SDS011;21997;47.118;15.346;2023-01-29T09:01:37;15.87;;;12.03;;
35897;SDS011;21997;47.118;15.346;2023-01-29T09:04:03;15.50;;;11.83;;
35897;SDS011;21997;47.118;15.346;2023-01-29T09:06:28;18.13;;;12.33;;
35897;SDS011;21997;47.118;15.346;2023-01-29T09:08:54;20.00;;;12.17;;
35897;SDS011;21997;47.118;15.346;2023-01-29T09:11:19;16.87;;;11.80;;
35897;SDS011;21997;47.118;15.346;2023-01-29T09:13:45;18.77;;;12.37;;
35897;SDS011;21997;47.118;15.346;2023-01-29T09:16:10;19.30;;;11.70;;
35897;SDS011;21997;47.118;15.346;2023-01-29T09:18:36;18.23;;;11.53;;
35897;SDS011;21997;47.118;15.346;2023-01-29T09:21:01;16.50;;;11.13;;
35897;SDS011;21997;47.118;15.346;2023-01-29T09:23:27;16.40;;;10.83;;
35897;SDS011;21997;47.118;15.346;2023-01-29T09:25:54;16.10;;;9.17;;
35897;SDS011;21997;47.118;15.346;2023-01-29T09:28:19;14.10;;;9.03;;
35897;SDS011;21997;47.118;15.346;2023-01-29T09:30:45;14.40;;;9.83;;
35897;SDS011;21997;47.118;15.346;2023-01-29T09:33:10;13.87;;;9.97;;
35897;SDS011;21997;47.118;15.346;2023-01-29T09:35:36;16.40;;;10.20;;
35897;SDS011;21997;47.118;15.346;2023-01-29T09:38:01;14.83;;;9.23;;
35897;SDS011;21997;47.118;15.346;2023-01-29T09:43:17;11.33;;;8.33;;
35897;SDS011;21997;47.118;15.346;2023-01-29T09:45:52;12.63;;;8.53;;
35897;SDS011;21997;47.118;15.346;2023-01-29T09:48:20;16.70;;;9.73;;
35897;SDS011;21997;47.118;15.346;2023-01-29T09:50:49;17.10;;;10.00;;
35897;SDS011;21997;47.118;15.346;2023-01-29T09:53:20;12.63;;;9.30;;
35897;SDS011;21997;47.118;15.346;2023-01-29T09:55:49;10.90;;;8.80;;
35897;SDS011;21997;47.118;15.346;2023-01-29T09:58:23;12.50;;;8.77;;
35897;SDS011;21997;47.118;15.346;2023-01-29T10:08:44;9.80;;;7.50;;
35897;SDS011;21997;47.118;15.346;2023-01-29T10:11:37;12.67;;;7.27;;
35897;SDS011;21997;47.118;15.346;2023-01-29T10:19:31;9.23;;;5.73;;
35897;SDS011;21997;47.118;15.346;2023-01-29T10:22:11;8.63;;;6.70;;
35897;SDS011;21997;47.118;15.346;2023-01-29T10:24:50;9.67;;;6.37;;
35897;SDS011;21997;47.118;15.346;2023-01-29T10:27:18;11.87;;;7.00;;
35897;SDS011;21997;47.118;15.346;2023-01-29T10:29:44;8.50;;;7.10;;
35897;SDS011;21997;47.118;15.346;2023-01-29T10:32:14;8.97;;;7.33;;
35897;SDS011;21997;47.118;15.346;2023-01-29T10:34:42;10.00;;;7.47;;
35897;SDS011;21997;47.118;15.346;2023-01-29T10:37:17;10.60;;;7.80;;
35897;SDS011;21997;47.118;15.346;2023-01-29T10:39:47;9.73;;;7.13;;
35897;SDS011;21997;47.118;15.346;2023-01-29T10:44:55;8.80;;;7.03;;
35897;SDS011;21997;47.118;15.346;2023-01-29T10:50:04;11.30;;;8.03;;
35897;SDS011;21997;47.118;15.346;2023-01-29T10:58:06;8.03;;;6.63;;
35897;SDS011;21997;47.118;15.346;2023-01-29T11:00:40;9.10;;;7.20;;
35897;SDS011;21997;47.118;15.346;2023-01-29T11:03:11;8.90;;;6.87;;
35897;SDS011;21997;47.118;15.346;2023-01-29T11:08:33;8.13;;;6.70;;
35897;SDS011;21997;47.118;15.346;2023-01-29T11:11:07;8.80;;;7.00;;
35897;SDS011;21997;47.118;15.346;2023-01-29T11:13:41;8.33;;;6.73;;
35897;SDS011;21997;47.118;15.346;2023-01-29T11:16:11;9.97;;;8.07;;
35897;SDS011;21997;47.118;15.346;2023-01-29T11:18:50;11.87;;;10.67;;
35897;SDS011;21997;47.118;15.346;2023-01-29T11:21:24;9.53;;;7.80;;
35897;SDS011;21997;47.118;15.346;2023-01-29T11:24:03;13.57;;;11.53;;
35897;SDS011;21997;47.118;15.346;2023-01-29T11:26:38;22.00;;;19.60;;
35897;SDS011;21997;47.118;15.346;2023-01-29T11:29:04;10.27;;;8.63;;
35897;SDS011;21997;47.118;15.346;2023-01-29T11:31:57;9.80;;;7.47;;
35897;SDS011;21997;47.118;15.346;2023-01-29T11:34:24;10.37;;;7.47;;
35897;SDS011;21997;47.118;15.346;2023-01-29T11:36:58;7.63;;;6.70;;
35897;SDS011;21997;47.118;15.346;2023-01-29T11:39:26;10.37;;;9.27;;
35897;SDS011;21997;47.118;15.346;2023-01-29T11:41:56;7.23;;;5.93;;
35897;SDS011;21997;47.118;15.346;2023-01-29T11:44:32;6.33;;;5.23;;
35897;SDS011;21997;47.118;15.346;2023-01-29T11:47:33;8.27;;;7.13;;
35897;SDS011;21997;47.118;15.346;2023-01-29T11:49:56;8.77;;;7.87;;
35897;SDS011;21997;47.118;15.346;2023-01-29T11:52:37;8.33;;;6.03;;
35897;SDS011;21997;47.118;15.346;2023-01-29T11:55:24;7.20;;;6.30;;
35897;SDS011;21997;47.118;15.346;2023-01-29T11:57:51;6.77;;;6.00;;
35897;SDS011;21997;47.118;15.346;2023-01-29T12:00:22;6.97;;;5.60;;
35897;SDS011;21997;47.118;15.346;2023-01-29T12:02:55;6.53;;;5.40;;
35897;SDS011;21997;47.118;15.346;2023-01-29T12:05:23;6.60;;;5.90;;
35897;SDS011;21997;47.118;15.346;2023-01-29T12:07:53;6.77;;;5.67;;
35897;SDS011;21997;47.118;15.346;2023-01-29T12:15:37;6.37;;;5.70;;
35897;SDS011;21997;47.118;15.346;2023-01-29T12:18:26;6.60;;;5.77;;
35897;SDS011;21997;47.118;15.346;2023-01-29T12:20:56;11.67;;;6.60;;
35897;SDS011;21997;47.118;15.346;2023-01-29T12:25:52;53.17;;;37.87;;
35897;SDS011;21997;47.118;15.346;2023-01-29T12:28:29;55.17;;;37.33;;
35897;SDS011;21997;47.118;15.346;2023-01-29T12:31:03;14.97;;;12.57;;
35897;SDS011;21997;47.118;15.346;2023-01-29T12:37:18;6.90;;;6.20;;
35897;SDS011;21997;47.118;15.346;2023-01-29T12:39:37;16.57;;;12.67;;
35897;SDS011;21997;47.118;15.346;2023-01-29T12:42:04;9.57;;;6.93;;
35897;SDS011;21997;47.118;15.346;2023-01-29T12:44:36;8.57;;;7.17;;
35897;SDS011;21997;47.118;15.346;2023-01-29T12:47:07;12.20;;;11.00;;
35897;SDS011;21997;47.118;15.346;2023-01-29T12:50:02;9.53;;;8.57;;
35897;SDS011;21997;47.118;15.346;2023-01-29T12:52:47;13.67;;;12.27;;
35897;SDS011;21997;47.118;15.346;2023-01-29T12:55:18;9.10;;;8.20;;
35897;SDS011;21997;47.118;15.346;2023-01-29T12:57:47;9.00;;;6.50;;
35897;SDS011;21997;47.118;15.346;2023-01-29T13:00:30;10.00;;;8.80;;
35897;SDS011;21997;47.118;15.346;2023-01-29T13:05:29;9.83;;;6.73;;
35897;SDS011;21997;47.118;15.346;2023-01-29T13:08:04;6.43;;;5.63;;
35897;SDS011;21997;47.118;15.346;2023-01-29T13:10:36;10.70;;;6.67;;
35897;SDS011;21997;47.118;15.346;2023-01-29T13:13:19;7.03;;;5.73;;
35897;SDS011;21997;47.118;15.346;2023-01-29T13:16:06;7.27;;;5.80;;
35897;SDS011;21997;47.118;15.346;2023-01-29T13:21:21;7.07;;;5.77;;
35897;SDS011;21997;47.118;15.346;2023-01-29T13:23:55;6.37;;;5.50;;
35897;SDS011;21997;47.118;15.346;2023-01-29T13:26:23;7.93;;;5.90;;
35897;SDS011;21997;47.118;15.346;2023-01-29T13:28:50;7.50;;;5.53;;
35897;SDS011;21997;47.118;15.346;2023-01-29T13:31:32;8.17;;;6.07;;
35897;SDS011;21997;47.118;15.346;2023-01-29T13:36:44;11.33;;;7.33;;
35897;SDS011;21997;47.118;15.346;2023-01-29T13:39:30;7.73;;;6.27;;
35897;SDS011;21997;47.118;15.346;2023-01-29T13:41:58;9.80;;;7.73;;
35897;SDS011;21997;47.118;15.346;2023-01-29T13:44:45;9.90;;;7.70;;
35897;SDS011;21997;47.118;15.346;2023-01-29T13:47:24;9.03;;;6.67;;
35897;SDS011;21997;47.118;15.346;2023-01-29T13:49:53;9.93;;;6.80;;
35897;SDS011;21997;47.118;15.346;2023-01-29T13:55:41;8.60;;;6.97;;
35897;SDS011;21997;47.118;15.346;2023-01-29T13:57:53;9.00;;;6.53;;
35897;SDS011;21997;47.118;15.346;2023-01-29T14:02:46;8.73;;;6.37;;
35897;SDS011;21997;47.118;15.346;2023-01-29T14:07:56;9.70;;;7.07;;
35897;SDS011;21997;47.118;15.346;2023-01-29T14:10:26;8.13;;;6.90;;
35897;SDS011;21997;47.118;15.346;2023-01-29T14:12:53;10.83;;;7.47;;
35897;SDS011;21997;47.118;15.346;2023-01-29T14:15:24;10.53;;;8.10;;
35897;SDS011;21997;47.118;15.346;2023-01-29T14:26:21;10.53;;;8.40;;
35897;SDS011;21997;47.118;15.346;2023-01-29T14:28:56;9.73;;;7.63;;
35897;SDS011;21997;47.118;15.346;2023-01-29T14:31:31;11.20;;;8.60;;
35897;SDS011;21997;47.118;15.346;2023-01-29T14:34:13;10.50;;;8.23;;
35897;SDS011;21997;47.118;15.346;2023-01-29T14:36:43;12.47;;;9.00;;
35897;SDS011;21997;47.118;15.346;2023-01-29T14:41:48;15.97;;;11.93;;
35897;SDS011;21997;47.118;15.346;2023-01-29T14:47:18;21.03;;;16.47;;
35897;SDS011;21997;47.118;15.346;2023-01-29T14:55:49;34.27;;;26.17;;
35897;SDS011;21997;47.118;15.346;2023-01-29T14:58:21;13.20;;;9.33;;
35897;SDS011;21997;47.118;15.346;2023-01-29T15:00:51;34.77;;;25.70;;
35897;SDS011;21997;47.118;15.346;2023-01-29T15:03:27;18.27;;;11.73;;
35897;SDS011;21997;47.118;15.346;2023-01-29T15:05:59;9.53;;;7.10;;
35897;SDS011;21997;47.118;15.346;2023-01-29T15:10:58;10.30;;;7.70;;
35897;SDS011;21997;47.118;15.346;2023-01-29T15:13:55;10.70;;;7.67;;
35897;SDS011;21997;47.118;15.346;2023-01-29T15:16:29;10.43;;;7.20;;
35897;SDS011;21997;47.118;15.346;2023-01-29T15:20:00;13.77;;;9.37;;
35897;SDS011;21997;47.118;15.346;2023-01-29T15:22:01;10.27;;;7.90;;
35897;SDS011;21997;47.118;15.346;2023-01-29T15:24:27;11.20;;;8.07;;
35897;SDS011;21997;47.118;15.346;2023-01-29T15:26:53;11.13;;;9.53;;
35897;SDS011;21997;47.118;15.346;2023-01-29T15:29:25;10.60;;;7.93;;
35897;SDS011;21997;47.118;15.346;2023-01-29T15:31:51;12.47;;;8.03;;
35897;SDS011;21997;47.118;15.346;2023-01-29T15:34:18;10.27;;;7.63;;
35897;SDS011;21997;47.118;15.346;2023-01-29T15:36:43;10.93;;;8.43;;
35897;SDS011;21997;47.118;15.346;2023-01-29T15:41:46;10.67;;;7.87;;
35897;SDS011;21997;47.118;15.346;2023-01-29T15:44:14;9.83;;;7.50;;
35897;SDS011;21997;47.118;15.346;2023-01-29T15:46:53;10.30;;;7.67;;
35897;SDS011;21997;47.118;15.346;2023-01-29T15:49:38;11.53;;;8.33;;
35897;SDS011;21997;47.118;15.346;2023-01-29T15:52:08;10.33;;;8.27;;
35897;SDS011;21997;47.118;15.346;2023-01-29T15:54:42;10.23;;;7.93;;
35897;SDS011;21997;47.118;15.346;2023-01-29T15:57:17;11.23;;;8.40;;
35897;SDS011;21997;47.118;15.346;2023-01-29T15:59:44;10.77;;;7.40;;
35897;SDS011;21997;47.118;15.346;2023-01-29T16:05:00;9.97;;;7.60;;
35897;SDS011;21997;47.118;15.346;2023-01-29T16:07:26;10.70;;;7.80;;
35897;SDS011;21997;47.118;15.346;2023-01-29T16:09:52;11.37;;;8.10;;
35897;SDS011;21997;47.118;15.346;2023-01-29T16:12:18;11.53;;;8.50;;
35897;SDS011;21997;47.118;15.346;2023-01-29T16:14:48;10.70;;;8.03;;
35897;SDS011;21997;47.118;15.346;2023-01-29T16:17:31;14.37;;;9.73;;
35897;SDS011;21997;47.118;15.346;2023-01-29T16:20:01;10.60;;;8.13;;
35897;SDS011;21997;47.118;15.346;2023-01-29T16:22:33;9.87;;;7.63;;
35897;SDS011;21997;47.118;15.346;2023-01-29T16:25:04;9.20;;;7.57;;
35897;SDS011;21997;47.118;15.346;2023-01-29T16:27:31;11.20;;;7.97;;
35897;SDS011;21997;47.118;15.346;2023-01-29T16:29:57;9.97;;;8.13;;
35897;SDS011;21997;47.118;15.346;2023-01-29T16:32:26;11.40;;;7.80;;
35897;SDS011;21997;47.118;15.346;2023-01-29T16:34:55;11.00;;;8.00;;
35897;SDS011;21997;47.118;15.346;2023-01-29T16:37:27;12.70;;;8.17;;
35897;SDS011;21997;47.118;15.346;2023-01-29T16:39:54;13.37;;;9.43;;
35897;SDS011;21997;47.118;15.346;2023-01-29T16:42:28;13.60;;;9.10;;
35897;SDS011;21997;47.118;15.346;2023-01-29T16:44:56;11.33;;;7.57;;
35897;SDS011;21997;47.118;15.346;2023-01-29T16:52:55;11.57;;;8.63;;
35897;SDS011;21997;47.118;15.346;2023-01-29T16:55:23;13.73;;;9.13;;
35897;SDS011;21997;47.118;15.346;2023-01-29T16:57:51;11.77;;;8.60;;
35897;SDS011;21997;47.118;15.346;2023-01-29T17:00:22;11.93;;;8.50;;
35897;SDS011;21997;47.118;15.346;2023-01-29T17:02:50;12.17;;;8.90;;
35897;SDS011;21997;47.118;15.346;2023-01-29T17:05:22;10.40;;;8.37;;
35897;SDS011;21997;47.118;15.346;2023-01-29T17:07:57;13.40;;;8.27;;